Latest Weather Observations for Dwellingup

IDW60801

Issued at 1:33 pm WST Thursday 28 May 2015 (issued every 30 minutes, with the page automatically refreshed every 10 minutes)

About weather observations | Map of weather stations | Latest weather observations for WA | Other Formats
Station Details ID: 009538 Name: DWELLINGUP Lat: -32.71 Lon: 116.06 Height: 267.0 m
Data from the previous 72 hours. | See also: Recent months at Dwellingup
Date/Time
WST
Temp
°C
App
Temp
°C
Dew
Point
Rel
Hum
%
Delta-T
°C
Wind Press
QNH
hPa
Press
MSL
hPa
Rain
since 9 am
mm
Dir
 
Spd
km/h
Gust
km/h
Spd
kts
Gust
kts
28/01:30pm 15.5 - 6.2 54 4.5 - - - - - 1023.3 1023.2 0.0
28/01:00pm 14.7 - 4.1 49 4.9 - - - - - 1023.7 1023.5 0.0
28/12:30pm 15.0 - 5.8 54 4.5 - - - - - 1023.9 1023.8 0.0
28/12:00pm 14.8 - 6.1 56 4.2 - - - - - 1024.3 1024.2 0.0
28/11:30am 13.9 - 4.8 54 4.3 - - - - - 1024.6 1024.5 0.0
28/11:00am 13.4 - 6.5 63 3.3 - - - - - 1025.0 1024.9 0.0
28/10:30am 13.2 - 7.4 68 2.9 - - - - - 1025.2 1025.1 0.0
28/10:00am 12.4 - 7.3 71 2.5 - - - - - 1025.4 1025.3 0.0
28/09:30am 11.9 - 7.6 75 2.1 - - - - - 1025.2 1025.1 0.0
28/09:00am 11.0 - 8.0 82 1.5 - - - - - 1025.1 1025.0 0.0
28/08:30am 9.9 - 8.3 90 0.8 - - - - - 1024.8 1024.7 0.0
28/08:00am 7.7 - 6.3 91 0.6 - - - - - 1024.5 1024.4 0.0
28/07:30am 7.9 - 6.4 90 0.7 - - - - - 1024.0 1023.9 0.0
28/07:00am 8.5 - 6.8 89 0.8 - - - - - 1023.9 1023.8 0.0
28/06:30am 8.8 - 7.3 90 0.7 - - - - - 1023.3 1023.2 0.0
28/06:00am 8.9 - 7.4 90 0.7 - - - - - 1023.2 1023.1 0.0
28/05:30am 8.6 - 7.1 90 0.7 - - - - - 1023.0 1022.9 0.0
28/05:00am 8.3 - 6.9 91 0.7 - - - - - 1022.9 1022.8 0.0
28/04:30am 8.0 - 6.6 91 0.7 - - - - - 1022.9 1022.8 0.0
28/04:00am 7.9 - 6.5 91 0.6 - - - - - 1022.8 1022.7 0.0
28/03:30am 7.3 - 6.1 92 0.6 - - - - - 1022.8 1022.7 0.0
28/03:00am 6.5 - 5.3 92 0.5 - - - - - 1022.9 1022.8 0.0
28/02:30am 6.0 - 4.8 92 0.5 - - - - - 1022.9 1022.8 0.0
28/02:00am 6.0 - 4.8 92 0.5 - - - - - 1022.8 1022.7 0.0
28/01:30am 5.6 - 4.4 92 0.5 - - - - - 1022.6 1022.5 0.0
28/01:00am 5.0 - 3.8 92 0.5 - - - - - 1022.3 1022.2 0.0
28/12:30am 5.4 - 4.2 92 0.5 - - - - - 1022.6 1022.5 0.0
28/12:00am 5.6 - 4.2 91 0.6 - - - - - 1022.7 1022.6 0.0
 
Date/Time
WST
Temp
°C
App
Temp
°C
Dew
Point
Rel
Hum
%
Delta-T
°C
Wind Press
QNH
hPa
Press
MSL
hPa
Rain
since 9 am
mm
Dir
 
Spd
km/h
Gust
km/h
Spd
kts
Gust
kts
27/11:30pm 5.9 - 4.5 91 0.6 - - - - - 1022.8 1022.7 0.0
27/11:00pm 5.8 - 4.4 91 0.6 - - - - - 1022.7 1022.6 0.0
27/10:30pm 6.1 - 4.6 90 0.7 - - - - - 1022.7 1022.6 0.0
27/10:00pm 6.4 - 4.9 90 0.7 - - - - - 1022.7 1022.6 0.0
27/09:30pm 6.7 - 5.0 89 0.8 - - - - - 1022.8 1022.7 0.0
27/09:00pm 7.2 - 5.3 88 0.9 - - - - - 1022.7 1022.6 0.0
27/08:30pm 7.6 - 5.6 87 0.9 - - - - - 1022.6 1022.5 0.0
27/08:00pm 8.3 - 6.1 86 1.0 - - - - - 1022.6 1022.5 0.0
27/07:30pm 8.7 - 6.3 85 1.1 - - - - - 1022.4 1022.3 0.0
27/07:00pm 9.0 - 6.4 84 1.2 - - - - - 1022.2 1022.1 0.0
27/06:30pm 10.0 - 6.7 80 1.6 - - - - - 1021.8 1021.7 0.0
27/06:00pm 11.5 - 6.6 72 2.3 - - - - - 1021.6 1021.5 0.0
27/05:30pm 12.9 - 6.9 67 2.9 - - - - - 1021.7 1021.6 0.0
27/05:00pm 13.7 - 6.1 60 3.7 - - - - - 1021.6 1021.5 0.0
27/04:30pm 14.5 - 5.6 55 4.3 - - - - - 1021.6 1021.5 0.0
27/04:00pm 14.3 - 4.9 53 4.4 - - - - - 1021.5 1021.4 0.0
27/03:30pm 14.3 - 4.9 53 4.4 - - - - - 1021.5 1021.4 0.0
27/03:00pm 15.1 - 4.8 50 4.9 - - - - - 1021.4 1021.3 0.0
27/02:30pm 14.9 - 4.9 51 4.8 - - - - - 1021.6 1021.5 0.0
27/02:00pm 14.7 - 5.0 52 4.6 - - - - - 1021.7 1021.6 0.0
27/01:30pm 14.9 - 4.6 50 4.9 - - - - - 1021.8 1021.7 0.0
27/01:00pm 14.8 - 3.9 48 5.0 - - - - - 1022.2 1022.1 0.0
27/12:30pm 15.0 - 4.7 50 4.9 - - - - - 1022.6 1022.5 0.0
27/12:00pm 13.7 - 4.8 55 4.2 - - - - - 1023.4 1023.3 0.0
27/11:30am 13.8 - 4.1 52 4.5 - - - - - 1023.9 1023.8 0.0
27/11:00am 13.6 - 5.3 57 3.9 - - - - - 1024.3 1024.2 0.0
27/10:30am 12.9 - 4.8 58 3.8 - - - - - 1024.5 1024.4 0.0
27/10:00am 12.2 - 5.6 64 3.1 - - - - - 1024.7 1024.6 0.0
27/09:30am 11.0 - 7.3 78 1.8 - - - - - 1024.5 1024.4 0.0
27/09:00am 9.9 - 8.8 93 0.5 - - - - - 1024.4 1024.3 0.2
27/08:30am 7.8 - 6.7 93 0.5 - - - - - 1024.5 1024.4 0.2
27/08:00am 6.8 - 5.7 93 0.5 - - - - - 1024.3 1024.2 0.2
27/07:30am 6.3 - 5.3 93 0.4 - - - - - 1024.0 1023.9 0.2
27/07:00am 5.9 - 4.7 92 0.5 - - - - - 1023.8 1023.7 0.2
27/06:30am 6.5 - 5.3 92 0.5 - - - - - 1023.4 1023.3 0.2
27/06:00am 6.8 - 5.6 92 0.5 - - - - - 1023.1 1023.0 0.2
27/05:30am 7.3 - 5.9 91 0.6 - - - - - 1023.0 1022.9 0.2
27/05:00am 8.0 - 6.6 91 0.7 - - - - - 1022.9 1022.8 0.2
27/04:30am 8.4 - 7.0 91 0.7 - - - - - 1023.0 1022.9 0.2
27/04:00am 8.8 - 7.3 90 0.7 - - - - - 1023.1 1023.0 0.2
27/03:30am 9.4 - 7.7 89 0.8 - - - - - 1023.1 1023.0 0.2
27/03:00am 9.6 - 7.9 89 0.8 - - - - - 1023.1 1023.0 0.2
27/02:30am 9.7 - 8.0 89 0.8 - - - - - 1023.3 1023.2 0.2
27/02:00am 9.7 - 8.0 89 0.8 - - - - - 1023.4 1023.3 0.2
27/01:30am 9.8 - 8.1 89 0.8 - - - - - 1023.4 1023.3 0.2
27/01:00am 10.0 - 8.1 88 0.9 - - - - - 1023.7 1023.5 0.2
27/12:30am 9.9 - 8.2 89 0.8 - - - - - 1023.8 1023.7 0.2
27/12:00am 9.9 - 8.2 89 0.8 - - - - - 1023.9 1023.8 0.2
 
Date/Time
WST
Temp
°C
App
Temp
°C
Dew
Point
Rel
Hum
%
Delta-T
°C
Wind Press
QNH
hPa
Press
MSL
hPa
Rain
since 9 am
mm
Dir
 
Spd
km/h
Gust
km/h
Spd
kts
Gust
kts
26/11:30pm 9.7 - 8.1 90 0.8 - - - - - 1024.2 1024.1 0.2
26/11:00pm 9.3 - 7.7 90 0.8 - - - - - 1024.3 1024.2 0.2
26/10:30pm 9.4 - 7.8 90 0.8 - - - - - 1024.4 1024.3 0.2
26/10:00pm 9.4 - 7.7 89 0.8 - - - - - 1024.6 1024.5 0.2
26/09:30pm 9.7 - 8.0 89 0.8 - - - - - 1024.5 1024.4 0.2
26/09:00pm 10.0 - 8.3 89 0.8 - - - - - 1024.4 1024.3 0.2
26/08:30pm 10.4 - 8.7 89 0.8 - - - - - 1024.3 1024.2 0.2
26/08:00pm 10.3 - 8.4 88 0.9 - - - - - 1024.2 1024.1 0.2
26/07:30pm 10.4 - 8.3 87 1.0 - - - - - 1023.8 1023.7 0.2
26/07:00pm 10.8 - 8.6 86 1.1 - - - - - 1023.6 1023.4 0.2
26/06:30pm 10.9 - 8.5 85 1.2 - - - - - 1023.4 1023.3 0.2
26/06:00pm 11.5 - 8.5 82 1.5 - - - - - 1023.0 1022.9 0.2
26/05:30pm 12.9 - 8.6 75 2.2 - - - - - 1022.8 1022.7 0.2
26/05:00pm 14.8 - 8.3 65 3.3 - - - - - 1022.7 1022.6 0.2
26/04:30pm 15.6 - 7.6 59 4.0 - - - - - 1022.7 1022.6 0.2
26/04:00pm 16.5 - 7.7 56 4.5 - - - - - 1022.6 1022.5 0.2
26/03:30pm 17.1 - 7.7 54 4.8 - - - - - 1022.6 1022.5 0.2
26/03:00pm 16.7 - 7.4 54 4.7 - - - - - 1022.5 1022.4 0.2
26/02:30pm 16.8 - 9.2 61 4.0 - - - - - 1022.5 1022.4 0.2
26/02:00pm 16.8 - 9.5 62 3.8 - - - - - 1022.6 1022.5 0.2
26/01:30pm 15.7 - 9.8 68 3.1 - - - - - 1022.8 1022.7 0.2
26/01:00pm 16.9 - 10.1 64 3.6 - - - - - 1022.9 1022.8 0.2
26/12:30pm 17.2 - 11.0 67 3.4 - - - - - 1023.0 1022.9 0.2
26/12:00pm 15.6 - 11.0 74 2.5 - - - - - 1023.6 1023.4 0.2
26/11:30am 16.1 - 10.4 69 3.1 - - - - - 1023.8 1023.7 0.2
26/11:00am 15.6 - 11.0 74 2.5 - - - - - 1024.1 1024.0 0.2
26/10:30am 14.1 - 12.0 87 1.1 - - - - - 1024.4 1024.3 0.2
26/10:00am 13.5 - 12.4 93 0.6 - - - - - 1024.4 1024.3 0.2
26/09:30am 11.7 - 10.8 94 0.5 - - - - - 1024.3 1024.2 0.2
26/09:00am 10.1 - 9.2 94 0.5 - - - - - 1024.3 1024.2 0.4
26/08:30am 8.9 - 8.0 94 0.4 - - - - - 1024.1 1024.0 0.2
26/08:00am 8.0 - 7.1 94 0.4 - - - - - 1023.6 1023.4 0.0
26/07:30am 6.4 - 5.4 93 0.4 - - - - - 1023.3 1023.2 0.0
26/07:00am 5.6 - 4.6 93 0.4 - - - - - 1023.1 1023.0 0.0
26/06:30am 5.6 - 4.6 93 0.4 - - - - - 1022.5 1022.4 0.0
26/06:00am 5.5 - 4.5 93 0.4 - - - - - 1022.2 1022.1 0.0
26/05:30am 5.6 - 4.6 93 0.4 - - - - - 1022.3 1022.2 0.0
26/05:00am 5.8 - 4.8 93 0.4 - - - - - 1022.2 1022.1 0.0
26/04:30am 6.0 - 5.0 93 0.4 - - - - - 1022.0 1021.9 0.0
26/04:00am 6.3 - 5.3 93 0.4 - - - - - 1021.9 1021.8 0.0
26/03:30am 6.3 - 5.3 93 0.4 - - - - - 1022.1 1022.0 0.0
26/03:00am 6.4 - 5.2 92 0.5 - - - - - 1022.2 1022.1 0.0
26/02:30am 6.9 - 5.7 92 0.5 - - - - - 1022.3 1022.2 0.0
26/02:00am 7.1 - 5.9 92 0.5 - - - - - 1022.2 1022.1 0.0
26/01:30am 7.6 - 6.4 92 0.6 - - - - - 1022.4 1022.3 0.0
26/01:00am 8.0 - 6.8 92 0.6 - - - - - 1022.5 1022.4 0.0
26/12:30am 8.2 - 7.0 92 0.6 - - - - - 1022.6 1022.5 0.0
26/12:00am 8.5 - 7.3 92 0.6 - - - - - 1022.8 1022.7 0.0
 
Date/Time
WST
Temp
°C
App
Temp
°C
Dew
Point
Rel
Hum
%
Delta-T
°C
Wind Press
QNH
hPa
Press
MSL
hPa
Rain
since 9 am
mm
Dir
 
Spd
km/h
Gust
km/h
Spd
kts
Gust
kts
25/11:30pm 8.6 - 7.2 91 0.7 - - - - - 1023.0 1022.9 0.0
25/11:00pm 8.5 - 7.1 91 0.7 - - - - - 1023.1 1023.0 0.0
25/10:30pm 9.0 - 7.6 91 0.7 - - - - - 1023.1 1023.0 0.0
25/10:00pm 9.2 - 7.8 91 0.7 - - - - - 1023.1 1023.0 0.0
25/09:30pm 9.1 - 7.7 91 0.7 - - - - - 1023.0 1022.9 0.0
25/09:00pm 9.4 - 7.8 90 0.8 - - - - - 1022.9 1022.8 0.0
25/08:30pm 9.6 - 7.9 89 0.8 - - - - - 1022.8 1022.7 0.0
25/08:00pm 9.9 - 8.0 88 0.9 - - - - - 1022.5 1022.4 0.0
25/07:30pm 10.2 - 8.1 87 1.0 - - - - - 1022.5 1022.4 0.0
25/07:00pm 10.9 - 8.5 85 1.2 - - - - - 1022.2 1022.1 0.0
25/06:30pm 11.7 - 8.7 82 1.5 - - - - - 1022.0 1021.9 0.0
25/06:00pm 12.8 - 9.1 78 1.9 - - - - - 1021.8 1021.7 0.0
25/05:30pm 14.1 - 8.9 71 2.7 - - - - - 1021.5 1021.4 0.0
25/05:00pm 15.7 - 8.7 63 3.6 - - - - - 1021.3 1021.2 0.0
25/04:30pm 16.5 - 8.7 60 4.1 - - - - - 1021.2 1021.1 0.0
25/04:00pm 17.0 - 7.6 54 4.8 - - - - - 1021.1 1021.0 0.0
25/03:30pm 18.7 - 8.1 50 5.5 - - - - - 1021.1 1021.0 0.0
25/03:00pm 19.1 - 7.5 47 6.0 - - - - - 1021.1 1021.0 0.0
25/02:30pm 19.2 - 6.7 44 6.4 - - - - - 1021.0 1020.9 0.0
25/02:00pm 18.9 - 6.4 44 6.3 - - - - - 1021.0 1020.9 0.0

Other Formats:

Comma delimited format used in spreadsheet applications
http://www.bom.gov.au/fwo/IDW60801/IDW60801.94620.axf

JavaScript Object Notation format (JSON) in row-major order
http://www.bom.gov.au/fwo/IDW60801/IDW60801.94620.json